createdAt,value
2022-12-25T00:00:15.216Z,3.34
2022-12-25T00:03:19.946Z,3.27
2022-12-25T00:06:21.366Z,3.27
2022-12-25T00:09:22.769Z,3.21
2022-12-25T00:12:24.299Z,3.16
2022-12-25T00:15:25.672Z,3.08
2022-12-25T00:18:27.006Z,3.02
2022-12-25T00:21:28.704Z,3.01
2022-12-25T00:24:30.181Z,2.99
2022-12-25T00:27:32.608Z,2.98
2022-12-25T00:30:33.943Z,2.97
2022-12-25T00:33:40.497Z,2.98
2022-12-25T00:36:42.453Z,2.95
2022-12-25T00:39:43.861Z,2.98
2022-12-25T00:42:45.183Z,3.02
2022-12-25T00:46:00.745Z,3.02
2022-12-25T00:49:02.911Z,2.98
2022-12-25T00:52:04.470Z,2.88
2022-12-25T00:55:06.257Z,2.80
2022-12-25T00:58:07.587Z,2.69
2022-12-25T01:01:13.990Z,2.63
2022-12-25T01:04:15.583Z,2.52
2022-12-25T01:07:17.532Z,2.47
2022-12-25T01:10:18.897Z,2.47
2022-12-25T01:13:20.307Z,2.48
2022-12-25T01:16:21.819Z,2.36
2022-12-25T01:19:23.198Z,2.29
2022-12-25T01:22:24.577Z,2.23
2022-12-25T01:25:25.934Z,2.19
2022-12-25T01:28:27.295Z,2.16
2022-12-25T01:31:28.713Z,2.14
2022-12-25T01:34:30.184Z,2.13
2022-12-25T01:37:31.557Z,2.20
2022-12-25T01:40:34.655Z,2.36
2022-12-25T01:43:36.096Z,2.51
2022-12-25T01:46:37.450Z,2.67
2022-12-25T01:49:40.737Z,2.77
2022-12-25T01:52:42.195Z,2.81
2022-12-25T01:55:47.808Z,2.84
2022-12-25T01:58:49.372Z,2.86
2022-12-25T02:01:51.188Z,2.94
2022-12-25T02:05:01.359Z,2.99
2022-12-25T02:08:11.409Z,3.02
2022-12-25T02:11:12.821Z,2.93
2022-12-25T02:14:14.436Z,2.80
2022-12-25T02:17:26.496Z,2.70
2022-12-25T02:20:33.096Z,2.61
2022-12-25T02:23:56.230Z,2.54
2022-12-25T02:27:22.077Z,2.54
2022-12-25T02:30:26.206Z,2.57
2022-12-25T02:33:39.929Z,2.54
2022-12-25T02:37:06.084Z,2.51
2022-12-25T02:40:17.154Z,2.43
2022-12-25T02:43:23.739Z,2.37
2022-12-25T02:46:27.458Z,2.31
2022-12-25T02:49:30.861Z,2.24
2022-12-25T02:52:32.157Z,2.04
2022-12-25T02:55:38.085Z,2.02
2022-12-25T02:58:42.552Z,1.94
2022-12-25T03:01:44.885Z,1.83
2022-12-25T03:04:48.556Z,1.81
2022-12-25T03:07:50.400Z,1.84
2022-12-25T03:11:03.518Z,1.93
2022-12-25T03:14:08.303Z,1.98
2022-12-25T03:17:09.779Z,2.03
2022-12-25T03:20:11.546Z,2.04
2022-12-25T03:23:16.185Z,2.07
2022-12-25T03:26:17.826Z,2.08
2022-12-25T03:29:19.270Z,2.10
2022-12-25T03:32:38.889Z,2.11
2022-12-25T03:35:48.361Z,2.12
2022-12-25T03:39:03.638Z,2.12
2022-12-25T03:42:06.894Z,2.13
2022-12-25T03:45:17.321Z,2.14
2022-12-25T03:48:19.602Z,2.08
2022-12-25T03:51:29.763Z,2.06
2022-12-25T03:54:35.020Z,2.06
2022-12-25T03:57:36.510Z,2.09
2022-12-25T04:00:37.981Z,2.10
2022-12-25T04:03:39.347Z,2.18
2022-12-25T04:06:41.116Z,2.27
2022-12-25T04:09:42.451Z,2.31
2022-12-25T04:12:43.781Z,2.38
2022-12-25T04:15:45.198Z,2.46
2022-12-25T04:18:46.573Z,2.50
2022-12-25T04:21:47.978Z,2.51
2022-12-25T04:24:49.351Z,2.52
2022-12-25T04:27:50.689Z,2.51
2022-12-25T04:30:52.100Z,2.48
2022-12-25T04:33:53.458Z,2.40
2022-12-25T04:36:54.812Z,2.38
2022-12-25T04:39:56.271Z,2.35
2022-12-25T04:42:57.599Z,2.28
2022-12-25T04:46:00.837Z,2.28
2022-12-25T04:49:02.436Z,2.26
2022-12-25T04:52:03.915Z,2.29
2022-12-25T04:55:06.691Z,2.37
2022-12-25T04:58:08.163Z,2.46
2022-12-25T05:01:10.862Z,2.54
2022-12-25T05:04:12.190Z,2.59
2022-12-25T05:07:13.635Z,2.62
2022-12-25T05:10:15.217Z,2.66
2022-12-25T05:13:16.625Z,2.66
2022-12-25T05:16:19.940Z,2.67
2022-12-25T05:19:21.359Z,2.53
2022-12-25T05:22:22.734Z,2.60
2022-12-25T05:25:24.142Z,2.61
2022-12-25T05:28:25.648Z,2.61
2022-12-25T05:31:27.008Z,2.65
2022-12-25T05:34:28.466Z,2.68
2022-12-25T05:37:29.853Z,2.73
2022-12-25T05:40:31.432Z,2.76
2022-12-25T05:43:32.941Z,2.76
2022-12-25T05:46:34.344Z,2.76
2022-12-25T05:49:35.739Z,2.77
2022-12-25T05:52:37.114Z,2.79
2022-12-25T05:55:40.450Z,2.82
2022-12-25T05:58:41.848Z,2.81
2022-12-25T06:01:43.467Z,2.81
2022-12-25T06:04:45.121Z,2.80
2022-12-25T06:07:46.596Z,2.77
2022-12-25T06:10:48.265Z,2.77
2022-12-25T06:13:54.112Z,2.77
2022-12-25T06:16:55.715Z,2.74
2022-12-25T06:19:57.133Z,2.70
2022-12-25T06:22:58.586Z,2.69
2022-12-25T06:25:59.960Z,2.63
2022-12-25T06:29:01.479Z,2.59
2022-12-25T06:32:03.177Z,2.59
2022-12-25T06:35:05.837Z,2.61
2022-12-25T06:38:07.245Z,2.62
2022-12-25T06:41:17.207Z,2.67
2022-12-25T06:44:18.557Z,2.72
2022-12-25T06:47:19.947Z,2.78
2022-12-25T06:50:21.286Z,2.75
2022-12-25T06:53:22.661Z,2.76
2022-12-25T06:56:26.846Z,2.78
2022-12-25T06:59:28.219Z,2.85
2022-12-25T07:02:31.029Z,2.87
2022-12-25T07:05:32.488Z,2.93
2022-12-25T07:08:33.831Z,2.98
2022-12-25T07:11:35.682Z,3.01
2022-12-25T07:14:37.107Z,3.01
2022-12-25T07:17:38.477Z,3.04
2022-12-25T07:20:39.832Z,3.06
2022-12-25T07:23:42.331Z,3.11
2022-12-25T07:26:43.694Z,3.16
2022-12-25T07:29:45.068Z,3.23
2022-12-25T07:32:50.091Z,3.28
2022-12-25T07:35:51.759Z,3.31
2022-12-25T07:38:53.112Z,3.33
2022-12-25T07:41:54.512Z,3.32
2022-12-25T07:44:56.005Z,3.35
2022-12-25T07:48:02.724Z,3.39
2022-12-25T07:51:10.111Z,3.43
2022-12-25T07:54:11.488Z,3.45
2022-12-25T07:57:12.826Z,3.48
2022-12-25T08:00:15.076Z,3.51
2022-12-25T08:03:16.521Z,3.54
2022-12-25T08:06:19.076Z,3.56
2022-12-25T08:09:20.443Z,3.60
2022-12-25T08:12:21.852Z,3.65
2022-12-25T08:15:23.218Z,3.70
2022-12-25T08:18:29.941Z,3.74
2022-12-25T08:21:31.876Z,3.79
2022-12-25T08:24:33.276Z,3.82
2022-12-25T08:27:35.328Z,3.85
2022-12-25T08:30:40.603Z,3.90
2022-12-25T08:33:43.066Z,3.93
2022-12-25T08:36:44.473Z,3.96
2022-12-25T08:39:45.942Z,3.99
2022-12-25T08:42:47.299Z,4.05
2022-12-25T08:45:48.832Z,4.10
2022-12-25T08:48:50.499Z,4.16
2022-12-25T08:51:51.819Z,4.24
2022-12-25T08:54:53.163Z,4.35
2022-12-25T08:57:54.532Z,4.45
2022-12-25T09:00:56.501Z,4.52
2022-12-25T09:03:57.923Z,4.58
2022-12-25T09:06:59.261Z,4.63
2022-12-25T09:10:00.622Z,4.69
2022-12-25T09:13:02.125Z,4.74
2022-12-25T09:16:08.779Z,4.78
2022-12-25T09:19:10.201Z,4.82
2022-12-25T09:22:11.569Z,4.88
2022-12-25T09:25:12.955Z,4.91
2022-12-25T09:28:14.321Z,4.97
2022-12-25T09:31:16.018Z,5.01
2022-12-25T09:34:19.160Z,5.05
2022-12-25T09:37:20.676Z,5.09
2022-12-25T09:40:25.524Z,5.15
2022-12-25T09:43:30.920Z,5.19
2022-12-25T09:46:47.147Z,5.19
2022-12-25T09:50:04.008Z,5.25
2022-12-25T09:53:22.845Z,5.31
2022-12-25T09:56:25.381Z,5.36
2022-12-25T09:59:27.127Z,5.38
2022-12-25T10:02:53.617Z,5.38
2022-12-25T10:05:58.190Z,5.40
2022-12-25T10:09:11.741Z,5.41
2022-12-25T10:12:27.694Z,5.33
2022-12-25T10:15:53.542Z,5.41
2022-12-25T10:19:04.622Z,5.45
2022-12-25T10:22:27.771Z,5.49
2022-12-25T10:25:31.566Z,5.50
2022-12-25T10:28:43.426Z,5.54
2022-12-25T10:31:51.182Z,5.55
2022-12-25T10:34:52.598Z,5.56
2022-12-25T10:38:05.816Z,5.57
2022-12-25T10:41:48.920Z,5.60
2022-12-25T10:45:04.823Z,5.62
2022-12-25T10:48:07.963Z,5.65
2022-12-25T10:51:09.577Z,5.66
2022-12-25T10:54:29.644Z,5.66
2022-12-25T10:57:31.004Z,5.71
2022-12-25T11:00:32.656Z,5.74
2022-12-25T11:03:38.017Z,5.76
2022-12-25T11:06:39.450Z,5.77
2022-12-25T11:09:48.604Z,5.78
2022-12-25T11:12:51.035Z,5.80
2022-12-25T11:16:03.603Z,5.82
2022-12-25T11:19:24.364Z,5.84
2022-12-25T11:22:26.899Z,5.88
2022-12-25T11:25:28.273Z,5.89
2022-12-25T11:28:32.925Z,5.88
2022-12-25T11:31:41.220Z,5.89
2022-12-25T11:34:45.950Z,5.90
2022-12-25T11:37:52.488Z,5.93
2022-12-25T11:41:03.487Z,5.95
2022-12-25T11:44:18.953Z,5.95
2022-12-25T11:47:45.078Z,5.94
2022-12-25T11:50:53.677Z,5.96
2022-12-25T11:54:00.158Z,5.97
2022-12-25T11:57:05.805Z,5.95
2022-12-25T12:00:13.902Z,5.96
2022-12-25T12:03:27.232Z,5.94
2022-12-25T12:07:00.802Z,5.92
2022-12-25T12:10:15.397Z,5.91
2022-12-25T12:13:16.704Z,5.94
2022-12-25T12:16:18.352Z,5.95
2022-12-25T12:19:28.585Z,5.97
2022-12-25T12:22:29.968Z,5.96
2022-12-25T12:25:31.570Z,5.98
2022-12-25T12:28:43.774Z,5.97
2022-12-25T12:31:48.444Z,5.99
2022-12-25T12:34:50.002Z,5.99
2022-12-25T12:38:14.051Z,6.00
2022-12-25T12:41:15.897Z,6.00
2022-12-25T12:44:18.192Z,6.01
2022-12-25T12:47:42.961Z,5.98
2022-12-25T12:50:44.379Z,6.02
2022-12-25T12:53:45.746Z,6.04
2022-12-25T12:56:56.335Z,6.03
2022-12-25T13:00:03.152Z,6.06
2022-12-25T13:03:09.694Z,6.07
2022-12-25T13:06:26.065Z,6.09
2022-12-25T13:09:46.835Z,6.12
2022-12-25T13:12:53.128Z,6.15
2022-12-25T13:15:54.660Z,6.13
2022-12-25T13:18:56.640Z,6.11
2022-12-25T13:22:03.830Z,6.10
2022-12-25T13:25:16.542Z,6.08
2022-12-25T13:28:24.737Z,6.07
2022-12-25T13:31:28.991Z,6.09
2022-12-25T13:34:38.399Z,6.10
2022-12-25T13:37:39.775Z,6.11
2022-12-25T13:40:41.169Z,6.12
2022-12-25T13:43:44.199Z,6.12
2022-12-25T13:46:46.094Z,6.06
2022-12-25T13:49:48.605Z,6.00
2022-12-25T13:52:50.390Z,5.92
2022-12-25T13:55:54.416Z,5.88
2022-12-25T13:58:56.014Z,5.83
2022-12-25T14:01:57.625Z,5.79
2022-12-25T14:04:59.152Z,5.79
2022-12-25T14:08:03.172Z,5.76
2022-12-25T14:11:05.976Z,5.76
2022-12-25T14:14:17.181Z,5.74
2022-12-25T14:17:19.191Z,5.73
2022-12-25T14:20:23.023Z,5.73
2022-12-25T14:23:24.673Z,5.71
2022-12-25T14:26:29.244Z,5.68
2022-12-25T14:29:42.491Z,5.65
2022-12-25T14:32:47.783Z,5.61
2022-12-25T14:35:50.268Z,5.56
2022-12-25T14:39:04.391Z,5.52
2022-12-25T14:42:20.685Z,5.46
2022-12-25T14:45:48.596Z,5.47
2022-12-25T14:48:59.706Z,5.41
2022-12-25T14:52:27.982Z,5.33
2022-12-25T14:55:30.396Z,5.32
2022-12-25T14:58:37.510Z,5.32
2022-12-25T15:01:41.228Z,5.29
2022-12-25T15:04:43.331Z,5.29
2022-12-25T15:07:44.643Z,5.31
2022-12-25T15:11:03.270Z,5.33
2022-12-25T15:14:05.041Z,5.33
2022-12-25T15:17:06.489Z,5.34
2022-12-25T15:20:12.302Z,5.37
2022-12-25T15:23:19.778Z,5.36
2022-12-25T15:26:21.786Z,5.35
2022-12-25T15:29:44.569Z,5.36
2022-12-25T15:32:44.486Z,5.36
2022-12-25T15:35:46.173Z,5.39
2022-12-25T15:38:47.599Z,5.39
2022-12-25T15:41:49.121Z,5.41
2022-12-25T15:44:51.408Z,5.44
2022-12-25T15:47:53.083Z,5.44
2022-12-25T15:50:54.449Z,5.41
2022-12-25T15:53:56.000Z,5.40
2022-12-25T15:57:01.936Z,5.37
2022-12-25T16:00:05.226Z,5.35
2022-12-25T16:03:13.213Z,5.33
2022-12-25T16:06:16.886Z,5.35
2022-12-25T16:09:19.489Z,5.33
2022-12-25T16:12:20.923Z,5.33
2022-12-25T16:15:22.297Z,5.36
2022-12-25T16:18:23.777Z,5.39
2022-12-25T16:21:26.073Z,5.40
2022-12-25T16:24:27.459Z,5.40
2022-12-25T16:27:28.853Z,5.39
2022-12-25T16:30:30.355Z,5.40
2022-12-25T16:33:31.922Z,5.37
2022-12-25T16:36:33.891Z,5.34
2022-12-25T16:39:35.230Z,5.31
2022-12-25T16:42:37.904Z,5.31
2022-12-25T16:45:39.860Z,5.26
2022-12-25T16:48:41.461Z,5.28
2022-12-25T16:51:42.829Z,5.28
2022-12-25T16:54:47.323Z,5.27
2022-12-25T16:57:48.711Z,5.29
2022-12-25T17:00:50.064Z,5.36
2022-12-25T17:03:51.545Z,5.38
2022-12-25T17:06:52.917Z,5.40
2022-12-25T17:09:54.290Z,5.41
2022-12-25T17:12:55.629Z,5.40
2022-12-25T17:15:57.079Z,5.42
2022-12-25T17:19:01.059Z,5.43
2022-12-25T17:22:02.432Z,5.40
2022-12-25T17:25:04.273Z,5.39
2022-12-25T17:28:05.638Z,5.38
2022-12-25T17:31:09.611Z,5.39
2022-12-25T17:34:11.466Z,5.32
2022-12-25T17:37:12.810Z,5.30
2022-12-25T17:40:14.201Z,5.29
2022-12-25T17:43:20.549Z,5.28
2022-12-25T17:46:25.623Z,5.25
2022-12-25T17:49:27.044Z,5.22
2022-12-25T17:52:28.429Z,5.21
2022-12-25T17:55:29.771Z,5.22
2022-12-25T17:58:31.150Z,5.23
2022-12-25T18:01:32.752Z,5.24
2022-12-25T18:04:34.165Z,5.24
2022-12-25T18:07:35.491Z,5.24
2022-12-25T18:10:38.338Z,5.24
2022-12-25T18:13:39.693Z,5.21
2022-12-25T18:16:42.961Z,5.18
2022-12-25T18:19:44.301Z,5.15
2022-12-25T18:22:45.669Z,5.14
2022-12-25T18:25:47.223Z,5.11
2022-12-25T18:28:49.718Z,5.12
2022-12-25T18:31:51.142Z,5.09
2022-12-25T18:34:53.982Z,5.13
2022-12-25T18:37:55.894Z,5.13
2022-12-25T18:40:57.272Z,5.15
2022-12-25T18:43:59.612Z,5.15
2022-12-25T18:47:00.954Z,5.15
2022-12-25T18:50:03.026Z,5.14
2022-12-25T18:53:05.600Z,5.13
2022-12-25T18:56:13.450Z,5.10
2022-12-25T18:59:14.797Z,5.11
2022-12-25T19:02:16.775Z,5.12
2022-12-25T19:05:18.202Z,5.13
2022-12-25T19:08:19.548Z,5.11
2022-12-25T19:11:22.536Z,5.09
2022-12-25T19:14:25.360Z,5.03
2022-12-25T19:17:31.599Z,4.99
2022-12-25T19:20:33.355Z,4.94
2022-12-25T19:23:35.062Z,4.94
2022-12-25T19:26:36.396Z,4.95
2022-12-25T19:29:37.753Z,4.99
2022-12-25T19:32:39.205Z,5.02
2022-12-25T19:35:40.748Z,5.03
2022-12-25T19:38:43.077Z,5.03
2022-12-25T19:41:44.431Z,5.02
2022-12-25T19:44:45.791Z,5.02
2022-12-25T19:47:47.205Z,5.02
2022-12-25T19:50:49.244Z,5.04
2022-12-25T19:53:51.319Z,5.04
2022-12-25T19:56:52.674Z,5.05
2022-12-25T19:59:54.043Z,5.05
2022-12-25T20:02:55.500Z,5.07
2022-12-25T20:05:57.062Z,5.07
2022-12-25T20:09:02.126Z,5.10
2022-12-25T20:12:03.669Z,5.11
2022-12-25T20:15:06.974Z,5.13
2022-12-25T20:18:08.361Z,5.15
2022-12-25T20:21:15.607Z,5.16
2022-12-25T20:24:16.938Z,5.17
2022-12-25T20:27:18.348Z,5.17
2022-12-25T20:30:19.847Z,5.18
2022-12-25T20:33:21.666Z,5.19
2022-12-25T20:36:23.223Z,5.18
2022-12-25T20:39:24.611Z,5.21
2022-12-25T20:42:26.371Z,5.25
2022-12-25T20:45:27.864Z,5.31
2022-12-25T20:48:29.366Z,5.30
2022-12-25T20:51:30.869Z,5.35
2022-12-25T20:54:33.178Z,5.34
2022-12-25T20:57:34.594Z,5.35
2022-12-25T21:00:39.392Z,5.38
2022-12-25T21:03:41.499Z,5.37
2022-12-25T21:06:43.007Z,5.35
2022-12-25T21:09:44.389Z,5.35
2022-12-25T21:12:45.739Z,5.35
2022-12-25T21:15:48.745Z,5.35
2022-12-25T21:18:52.413Z,5.35
2022-12-25T21:21:53.796Z,5.37
2022-12-25T21:24:55.173Z,5.38
2022-12-25T21:27:58.266Z,5.36
2022-12-25T21:31:03.546Z,5.36
2022-12-25T21:34:04.914Z,5.39
2022-12-25T21:37:06.293Z,5.38
2022-12-25T21:40:12.800Z,5.36
2022-12-25T21:43:17.453Z,5.37
2022-12-25T21:46:19.429Z,5.39
2022-12-25T21:49:20.977Z,5.40
2022-12-25T21:52:22.352Z,5.42
2022-12-25T21:55:23.761Z,5.37
2022-12-25T21:58:25.122Z,5.37
2022-12-25T22:01:27.558Z,5.35
2022-12-25T22:04:29.026Z,5.33
2022-12-25T22:07:30.420Z,5.30
2022-12-25T22:10:31.793Z,5.28
2022-12-25T22:13:33.187Z,5.29
2022-12-25T22:16:34.602Z,5.32
2022-12-25T22:19:35.991Z,5.33
2022-12-25T22:22:37.386Z,5.33
2022-12-25T22:25:38.773Z,5.31
2022-12-25T22:28:40.137Z,5.32
2022-12-25T22:31:46.607Z,5.33
2022-12-25T22:34:48.543Z,5.31
2022-12-25T22:37:50.304Z,5.29
2022-12-25T22:40:51.658Z,5.31
2022-12-25T22:44:16.606Z,5.33
2022-12-25T22:47:14.383Z,5.33
2022-12-25T22:50:16.239Z,5.33
2022-12-25T22:53:17.739Z,5.32
2022-12-25T22:56:19.096Z,5.34
2022-12-25T22:59:22.208Z,5.33
2022-12-25T23:02:23.865Z,5.34
2022-12-25T23:05:25.306Z,5.31
2022-12-25T23:08:26.672Z,5.31
2022-12-25T23:11:28.220Z,5.31
2022-12-25T23:14:29.589Z,5.31
2022-12-25T23:17:30.949Z,5.32
2022-12-25T23:20:32.631Z,5.30
2022-12-25T23:23:34.018Z,5.28
2022-12-25T23:26:35.353Z,5.28
2022-12-25T23:29:37.058Z,5.26
2022-12-25T23:32:39.422Z,5.25
2022-12-25T23:35:41.059Z,5.23
2022-12-25T23:38:42.433Z,5.26
2022-12-25T23:41:43.990Z,5.25
2022-12-25T23:44:45.337Z,5.25
2022-12-25T23:47:46.676Z,5.27
2022-12-25T23:50:48.046Z,5.27
2022-12-25T23:53:49.445Z,5.29
2022-12-25T23:56:51.238Z,5.30
2022-12-25T23:59:52.574Z,5.29
